Time;durP1;ratioP1;P1;durP2;ratioP2;P2;SDS_P1;SDS_P2;PMS_P1;PMS_P2;Temp;Humidity;BMP_temperature;BMP_pressure;BME280_temperature;BME280_humidity;BME280_pressure;Samples;Min_cycle;Max_cycle;Signal;HPM_P1;HPM_P2
2020/12/31 00:02:23;;;;;;;7.25;2.78;;;3.40;90.70;;;;;;4868833;29;20061;-84
2020/12/31 00:04:50;;;;;;;6.25;2.60;;;3.30;90.20;;;;;;4856973;29;20129;-82
2020/12/31 00:07:17;;;;;;;6.65;2.38;;;3.30;90.40;;;;;;4857849;29;20045;-85
2020/12/31 00:09:43;;;;;;;5.22;2.28;;;3.30;90.40;;;;;;4873417;29;20266;-84
2020/12/31 00:12:12;;;;;;;6.32;2.80;;;3.40;90.60;;;;;;4873685;29;20061;-83
2020/12/31 00:14:39;;;;;;;5.80;3.30;;;3.40;90.30;;;;;;4856852;29;20054;-83
2020/12/31 00:17:06;;;;;;;7.07;2.95;;;3.40;90.30;;;;;;4842272;29;20076;-84
2020/12/31 00:19:34;;;;;;;5.43;2.60;;;3.40;90.40;;;;;;4866520;29;20233;-84
2020/12/31 00:22:06;;;;;;;6.53;3.20;;;3.40;90.40;;;;;;4873747;29;20061;-82
2020/12/31 00:24:32;;;;;;;5.30;2.40;;;3.40;90.60;;;;;;4867565;29;20052;-83
2020/12/31 00:27:02;;;;;;;6.18;3.03;;;3.40;90.50;;;;;;4856733;29;20061;-82
2020/12/31 00:29:30;;;;;;;7.65;3.13;;;3.50;90.60;;;;;;4856241;29;20049;-82
2020/12/31 00:31:57;;;;;;;4.57;2.22;;;3.40;90.10;;;;;;4856483;29;20053;-83
2020/12/31 00:34:24;;;;;;;8.15;3.03;;;3.50;90.20;;;;;;4857088;29;20057;-83
2020/12/31 00:36:51;;;;;;;9.48;3.53;;;3.50;89.90;;;;;;4857212;29;20065;-83
2020/12/31 00:39:18;;;;;;;5.07;2.72;;;3.50;90.20;;;;;;4855333;29;20079;-84
2020/12/31 00:41:45;;;;;;;7.20;2.97;;;3.50;90.00;;;;;;4868981;29;20086;-84
2020/12/31 00:44:12;;;;;;;5.88;3.10;;;3.40;89.50;;;;;;4868610;29;20061;-82
2020/12/31 00:46:40;;;;;;;6.03;3.60;;;3.50;89.10;;;;;;4856500;29;20065;-83
2020/12/31 00:49:07;;;;;;;7.30;3.47;;;3.50;88.90;;;;;;4846036;29;20082;-83
2020/12/31 00:51:34;;;;;;;4.95;2.90;;;3.50;89.30;;;;;;4872502;29;20053;-83
2020/12/31 00:54:03;;;;;;;7.15;3.35;;;3.50;89.20;;;;;;4872073;29;20060;-84
2020/12/31 00:56:32;;;;;;;7.10;3.50;;;3.60;88.40;;;;;;4871425;29;20061;-83
2020/12/31 00:58:59;;;;;;;6.53;3.03;;;3.60;88.30;;;;;;4837958;29;20049;-83
2020/12/31 01:01:29;;;;;;;8.30;4.00;;;3.60;88.70;;;;;;4871286;29;20170;-83
2020/12/31 01:03:57;;;;;;;7.50;3.40;;;3.60;88.20;;;;;;4865409;29;20050;-82
2020/12/31 01:06:24;;;;;;;7.43;3.97;;;3.70;88.10;;;;;;4868265;29;20112;-82
2020/12/31 01:08:51;;;;;;;6.45;3.28;;;3.60;88.30;;;;;;4857467;29;20049;-83
2020/12/31 01:11:18;;;;;;;9.27;3.58;;;3.60;87.80;;;;;;4853557;29;20054;-82
2020/12/31 01:13:45;;;;;;;6.90;3.53;;;3.50;87.90;;;;;;4841168;29;20065;-82
2020/12/31 01:16:12;;;;;;;6.95;3.03;;;3.60;87.70;;;;;;4863453;29;20056;-83
2020/12/31 01:18:39;;;;;;;7.15;3.55;;;3.50;88.00;;;;;;4874069;29;20050;-84
2020/12/31 01:21:11;;;;;;;5.50;2.95;;;3.40;88.20;;;;;;4868631;29;20427;-83
2020/12/31 01:23:38;;;;;;;7.38;3.10;;;3.40;88.20;;;;;;4872525;29;20061;-82
2020/12/31 01:26:04;;;;;;;7.25;3.88;;;3.50;87.90;;;;;;4856129;29;20280;-83
2020/12/31 01:28:32;;;;;;;7.88;3.25;;;3.40;87.50;;;;;;4840663;29;20057;-83
2020/12/31 01:30:59;;;;;;;7.53;3.17;;;3.40;87.80;;;;;;4856170;29;20049;-85
2020/12/31 01:33:26;;;;;;;4.80;2.67;;;3.40;87.50;;;;;;4851092;29;20106;-84
2020/12/31 01:35:53;;;;;;;5.50;2.50;;;3.40;87.90;;;;;;4871704;29;20063;-83
2020/12/31 01:38:21;;;;;;;9.57;3.80;;;3.40;87.90;;;;;;4859159;29;20314;-83
2020/12/31 01:40:50;;;;;;;6.13;3.03;;;3.40;88.10;;;;;;4871584;29;20129;-84
2020/12/31 01:43:17;;;;;;;4.70;2.38;;;3.40;88.20;;;;;;4855042;29;20084;-83
2020/12/31 01:45:44;;;;;;;7.07;2.58;;;3.40;87.50;;;;;;4870744;29;20242;-84
2020/12/31 01:48:11;;;;;;;7.93;3.75;;;3.40;87.90;;;;;;4850667;29;20077;-84
2020/12/31 01:50:40;;;;;;;4.07;2.15;;;3.40;88.10;;;;;;4858590;29;20085;-84
2020/12/31 01:53:10;;;;;;;8.35;2.97;;;3.40;87.90;;;;;;4874533;29;20049;-82
2020/12/31 01:55:40;;;;;;;7.70;3.17;;;3.40;87.80;;;;;;4858474;29;20054;-82
2020/12/31 01:58:08;;;;;;;5.82;3.20;;;3.40;88.00;;;;;;4870626;29;20117;-81
2020/12/31 02:00:35;;;;;;;6.03;2.60;;;3.40;87.90;;;;;;4860054;29;20056;-82
2020/12/31 02:03:04;;;;;;;4.53;2.45;;;3.40;87.80;;;;;;4863576;29;20069;-83
2020/12/31 02:05:38;;;;;;;6.15;3.00;;;3.40;87.70;;;;;;4862740;29;20072;-82
2020/12/31 02:08:10;;;;;;;5.97;2.70;;;3.40;87.50;;;;;;4843371;29;20330;-83
2020/12/31 02:10:37;;;;;;;7.22;2.60;;;3.40;87.40;;;;;;4867569;29;20062;-83
2020/12/31 02:13:04;;;;;;;4.63;1.95;;;3.40;87.70;;;;;;4862835;29;20409;-84
2020/12/31 02:15:32;;;;;;;5.35;3.03;;;3.40;87.70;;;;;;4871276;29;20098;-85
2020/12/31 02:17:59;;;;;;;6.75;2.85;;;3.40;87.70;;;;;;4871303;29;20049;-85
2020/12/31 02:20:26;;;;;;;5.70;2.00;;;3.40;87.50;;;;;;4871485;29;20085;-82
2020/12/31 02:22:54;;;;;;;4.88;2.42;;;3.40;87.40;;;;;;4854550;29;20230;-81
2020/12/31 02:25:20;;;;;;;5.38;2.42;;;3.40;87.20;;;;;;4868389;29;20071;-84
2020/12/31 02:27:48;;;;;;;5.35;2.50;;;3.40;87.30;;;;;;4844480;29;20053;-85
2020/12/31 02:30:15;;;;;;;3.75;2.10;;;3.40;87.60;;;;;;4870720;29;20065;-83
2020/12/31 02:32:42;;;;;;;6.22;2.92;;;3.40;87.60;;;;;;4858568;29;20061;-82
2020/12/31 02:35:14;;;;;;;5.18;2.80;;;3.40;87.20;;;;;;4864537;29;20257;-83
2020/12/31 02:37:41;;;;;;;5.78;2.10;;;3.40;87.40;;;;;;4875205;29;20405;-84
2020/12/31 02:40:09;;;;;;;4.35;2.35;;;3.40;87.40;;;;;;4884035;29;20057;-84
2020/12/31 02:42:36;;;;;;;5.03;3.00;;;3.40;87.70;;;;;;4868226;29;20041;-84
2020/12/31 02:45:04;;;;;;;5.00;2.72;;;3.40;87.50;;;;;;4874693;29;20057;-83
2020/12/31 02:47:38;;;;;;;6.55;2.75;;;3.40;87.40;;;;;;4865731;29;20057;-83
2020/12/31 02:50:06;;;;;;;4.78;2.65;;;3.40;87.40;;;;;;4867571;29;20061;-82
2020/12/31 02:52:34;;;;;;;4.88;2.80;;;3.50;87.70;;;;;;4852410;29;20334;-83
2020/12/31 02:55:01;;;;;;;4.13;2.33;;;3.50;87.60;;;;;;4872243;29;20065;-82
2020/12/31 02:57:30;;;;;;;6.50;2.70;;;3.40;87.20;;;;;;4866577;29;20045;-84
2020/12/31 02:59:56;;;;;;;5.25;2.60;;;3.40;87.30;;;;;;4878718;29;20053;-82
2020/12/31 03:02:23;;;;;;;4.75;2.58;;;3.40;87.20;;;;;;4870337;29;20069;-83
2020/12/31 03:04:50;;;;;;;4.50;2.05;;;3.40;87.30;;;;;;4869184;29;20101;-84
2020/12/31 03:07:18;;;;;;;4.82;2.45;;;3.40;87.20;;;;;;4865273;29;20068;-82
2020/12/31 03:09:46;;;;;;;5.88;2.42;;;3.50;87.20;;;;;;4852188;29;20049;-83
2020/12/31 03:12:16;;;;;;;6.35;2.67;;;3.50;87.20;;;;;;4858298;29;20064;-84
2020/12/31 03:14:44;;;;;;;4.30;2.20;;;3.40;87.20;;;;;;4872039;29;20165;-83
2020/12/31 03:17:11;;;;;;;4.10;2.10;;;3.50;87.10;;;;;;4871479;29;20053;-84
2020/12/31 03:19:37;;;;;;;6.57;2.88;;;3.50;86.90;;;;;;4885028;29;20116;-82
2020/12/31 03:22:04;;;;;;;4.93;1.90;;;3.40;87.10;;;;;;4863551;29;20082;-81
2020/12/31 03:24:32;;;;;;;4.50;2.38;;;3.40;86.40;;;;;;4869085;29;20057;-84
2020/12/31 03:27:00;;;;;;;5.40;2.20;;;3.40;86.60;;;;;;4864786;29;20058;-82
2020/12/31 03:29:27;;;;;;;5.97;2.92;;;3.40;86.80;;;;;;4887075;29;20085;-83
2020/12/31 03:31:55;;;;;;;7.15;2.97;;;3.40;86.70;;;;;;4860798;29;20061;-83
2020/12/31 03:34:22;;;;;;;6.18;2.53;;;3.40;86.90;;;;;;4862391;29;20057;-83
2020/12/31 03:36:49;;;;;;;6.35;2.75;;;3.40;86.70;;;;;;4860139;29;20124;-82
2020/12/31 03:39:16;;;;;;;6.47;3.33;;;3.40;86.90;;;;;;4858661;29;20061;-82
2020/12/31 03:41:43;;;;;;;7.75;2.53;;;3.40;86.60;;;;;;4859654;29;20261;-83
2020/12/31 03:44:10;;;;;;;4.68;2.28;;;3.40;86.70;;;;;;4871633;29;20053;-83
2020/12/31 03:46:37;;;;;;;5.00;2.85;;;3.40;86.40;;;;;;4868440;29;20052;-84
2020/12/31 03:49:04;;;;;;;5.00;2.10;;;3.40;86.70;;;;;;4865269;29;20052;-84
2020/12/31 03:51:31;;;;;;;7.05;2.47;;;3.40;86.80;;;;;;4876184;29;20064;-84
2020/12/31 03:53:58;;;;;;;6.82;2.47;;;3.40;86.50;;;;;;4866340;29;20100;-83
2020/12/31 03:56:25;;;;;;;6.07;3.45;;;3.40;86.90;;;;;;4879394;29;20065;-84
2020/12/31 03:58:52;;;;;;;7.80;3.17;;;3.40;87.00;;;;;;4852106;29;20065;-85
2020/12/31 04:01:19;;;;;;;4.38;2.20;;;3.40;87.00;;;;;;4864510;29;20065;-83
2020/12/31 04:03:47;;;;;;;5.13;2.42;;;3.40;86.90;;;;;;4864390;29;20053;-83
2020/12/31 04:06:15;;;;;;;4.75;2.22;;;3.40;86.70;;;;;;4872470;29;20073;-83
2020/12/31 04:08:42;;;;;;;5.93;2.20;;;3.40;86.40;;;;;;4885113;29;20490;-84
2020/12/31 04:11:10;;;;;;;3.85;1.98;;;3.40;86.60;;;;;;4843517;29;20368;-83
2020/12/31 04:13:36;;;;;;;6.55;2.22;;;3.40;86.40;;;;;;4876025;29;20063;-85
2020/12/31 04:16:04;;;;;;;6.82;2.92;;;3.50;86.10;;;;;;4870984;29;20053;-84
2020/12/31 04:18:31;;;;;;;3.95;1.95;;;3.50;86.20;;;;;;4853590;29;20057;-83
2020/12/31 04:20:58;;;;;;;4.50;2.00;;;3.40;86.30;;;;;;4862916;29;20100;-85
2020/12/31 04:23:25;;;;;;;4.47;1.80;;;3.40;86.40;;;;;;4868387;29;20049;-83
2020/12/31 04:25:52;;;;;;;5.65;2.17;;;3.40;86.50;;;;;;4857009;29;20057;-82
2020/12/31 04:28:20;;;;;;;4.70;2.10;;;3.40;86.60;;;;;;4872393;29;20244;-85
2020/12/31 04:30:48;;;;;;;3.95;2.40;;;3.40;86.60;;;;;;4875200;29;20057;-84
2020/12/31 04:33:15;;;;;;;6.57;1.95;;;3.60;86.40;;;;;;4860873;29;20056;-84
2020/12/31 04:35:42;;;;;;;5.88;2.17;;;3.50;86.40;;;;;;4856659;29;20057;-84
2020/12/31 04:38:09;;;;;;;4.07;1.92;;;3.40;86.60;;;;;;4864762;29;20049;-86
2020/12/31 04:40:42;;;;;;;5.28;2.38;;;3.40;87.20;;;;;;4880344;29;20072;-83
2020/12/31 04:43:09;;;;;;;5.38;1.73;;;3.30;87.10;;;;;;4864794;29;20295;-83
2020/12/31 04:45:39;;;;;;;3.88;1.92;;;3.20;87.20;;;;;;4864955;29;20053;-84
2020/12/31 04:48:09;;;;;;;7.38;2.25;;;3.10;87.70;;;;;;4864883;29;20128;-84
2020/12/31 04:50:40;;;;;;;7.47;2.35;;;2.90;88.60;;;;;;4856099;29;20053;-83
2020/12/31 04:53:10;;;;;;;4.78;1.92;;;2.80;89.30;;;;;;4879396;29;20057;-84
2020/12/31 04:55:43;;;;;;;3.80;1.80;;;2.70;89.60;;;;;;4876154;29;20127;-83
2020/12/31 04:58:12;;;;;;;6.85;2.28;;;2.60;90.40;;;;;;4850920;29;20061;-83
2020/12/31 05:00:39;;;;;;;5.88;1.77;;;2.50;90.60;;;;;;4875002;29;20057;-84
2020/12/31 05:03:06;;;;;;;5.10;2.15;;;2.40;90.70;;;;;;4864375;29;20073;-84
2020/12/31 05:05:34;;;;;;;4.53;1.88;;;2.40;90.90;;;;;;4861871;29;20136;-82
2020/12/31 05:08:03;;;;;;;5.03;2.25;;;2.30;90.70;;;;;;4866511;29;20065;-84
2020/12/31 05:10:32;;;;;;;6.95;3.08;;;2.20;91.20;;;;;;4871062;29;20061;-82
2020/12/31 05:13:01;;;;;;;8.30;2.85;;;2.20;91.40;;;;;;4872714;29;20046;-84
2020/12/31 05:15:36;;;;;;;6.13;2.40;;;2.00;92.00;;;;;;4874001;29;20069;-83
2020/12/31 05:18:20;;;;;;;8.15;3.60;;;2.00;92.20;;;;;;4870124;29;20062;-82
2020/12/31 05:20:48;;;;;;;7.22;3.47;;;2.00;92.40;;;;;;4867881;29;20341;-84
2020/12/31 05:23:15;;;;;;;12.00;4.70;;;1.90;92.80;;;;;;4871970;29;20132;-83
2020/12/31 05:25:43;;;;;;;6.85;3.35;;;1.80;92.70;;;;;;4843320;29;20049;-84
2020/12/31 05:28:31;;;;;;;10.70;4.30;;;1.80;93.00;;;;;;4864316;29;20224;-83
2020/12/31 05:30:59;;;;;;;7.50;3.33;;;1.70;93.00;;;;;;4873497;29;20062;-82
2020/12/31 05:33:29;;;;;;;7.82;1.90;;;1.70;93.10;;;;;;4873956;29;20089;-82
2020/12/31 05:36:16;;;;;;;4.47;1.70;;;1.70;93.30;;;;;;4856255;29;20329;-83
2020/12/31 05:39:04;;;;;;;5.55;1.67;;;1.70;93.40;;;;;;4857493;29;20093;-84
2020/12/31 05:41:32;;;;;;;3.00;1.50;;;1.60;93.40;;;;;;4843833;29;20121;-83
2020/12/31 05:44:04;;;;;;;4.45;1.73;;;1.60;93.70;;;;;;4843448;29;20061;-84
2020/12/31 05:46:32;;;;;;;6.30;1.88;;;1.60;93.80;;;;;;4880450;29;20278;-84
2020/12/31 05:49:01;;;;;;;6.25;3.10;;;1.60;93.90;;;;;;4875995;29;20066;-82
2020/12/31 05:51:29;;;;;;;7.00;2.08;;;1.50;93.70;;;;;;4858783;29;20058;-83
2020/12/31 05:54:06;;;;;;;7.22;2.00;;;1.50;93.70;;;;;;4857542;29;20072;-84
2020/12/31 05:56:34;;;;;;;5.07;1.55;;;1.60;93.40;;;;;;4866003;29;20061;-83
2020/12/31 05:59:07;;;;;;;3.83;1.63;;;1.60;93.80;;;;;;4876947;29;20399;-83
2020/12/31 06:01:38;;;;;;;7.43;1.75;;;1.60;93.50;;;;;;4856675;29;20057;-82
2020/12/31 06:04:18;;;;;;;4.03;1.40;;;1.50;93.70;;;;;;4862416;29;20544;-82
2020/12/31 06:06:50;;;;;;;4.32;1.77;;;1.60;93.80;;;;;;4869758;29;20053;-85
2020/12/31 06:09:27;;;;;;;5.63;2.30;;;1.60;93.80;;;;;;4860614;29;20097;-84
2020/12/31 06:11:58;;;;;;;5.50;2.25;;;1.50;93.80;;;;;;4860666;29;20061;-83
2020/12/31 06:14:30;;;;;;;4.50;2.08;;;1.60;93.80;;;;;;4853440;29;20053;-83
2020/12/31 06:16:58;;;;;;;4.68;2.05;;;1.60;93.60;;;;;;4875787;29;20084;-83
2020/12/31 06:19:31;;;;;;;4.72;2.75;;;1.60;93.80;;;;;;4867531;29;20058;-84
2020/12/31 06:22:04;;;;;;;3.58;1.60;;;1.60;93.80;;;;;;4876574;29;20053;-82
2020/12/31 06:24:36;;;;;;;3.95;1.55;;;1.60;93.90;;;;;;4874551;29;20069;-84
2020/12/31 06:27:17;;;;;;;4.93;1.80;;;1.60;93.80;;;;;;4864369;29;20057;-84
2020/12/31 06:29:47;;;;;;;4.75;2.10;;;1.60;93.70;;;;;;4866131;29;20109;-86
2020/12/31 06:32:27;;;;;;;4.53;2.35;;;1.50;94.00;;;;;;4850080;29;20360;-82
2020/12/31 06:35:03;;;;;;;4.82;2.95;;;1.70;93.70;;;;;;4877873;29;20089;-83
2020/12/31 06:37:31;;;;;;;6.68;2.38;;;1.70;93.70;;;;;;4882492;29;20097;-83
2020/12/31 06:40:22;;;;;;;6.20;2.55;;;1.70;93.90;;;;;;4877554;29;20096;-83
2020/12/31 06:43:04;;;;;;;6.45;2.67;;;1.60;93.70;;;;;;4869529;29;20057;-83
2020/12/31 06:45:36;;;;;;;4.43;1.95;;;1.60;93.80;;;;;;4881825;29;20057;-83
2020/12/31 06:48:04;;;;;;;6.05;2.47;;;1.70;93.70;;;;;;4883135;29;20053;-83
2020/12/31 06:50:55;;;;;;;5.50;2.25;;;1.70;93.40;;;;;;4875809;29;20341;-82
2020/12/31 06:53:30;;;;;;;3.30;1.70;;;1.80;92.90;;;;;;4863691;29;20057;-84
2020/12/31 06:55:59;;;;;;;5.05;2.20;;;1.70;92.90;;;;;;4876579;29;20065;-83
2020/12/31 06:58:26;;;;;;;4.97;2.08;;;1.70;92.80;;;;;;4875096;29;20288;-84
2020/12/31 07:00:55;;;;;;;4.18;2.17;;;1.70;92.80;;;;;;4866683;29;20057;-82
2020/12/31 07:03:47;;;;;;;3.92;1.73;;;1.70;92.80;;;;;;4885242;29;20057;-84
2020/12/31 07:06:30;;;;;;;4.43;1.70;;;1.60;92.90;;;;;;4863759;29;20072;-83
2020/12/31 07:09:05;;;;;;;4.15;1.70;;;1.50;93.00;;;;;;4860431;29;20050;-84
2020/12/31 07:11:37;;;;;;;7.57;2.47;;;1.50;93.20;;;;;;4859333;29;20408;-83
2020/12/31 07:14:22;;;;;;;2.95;1.50;;;1.40;93.40;;;;;;4846118;29;20048;-83
2020/12/31 07:16:56;;;;;;;4.18;1.67;;;1.50;93.40;;;;;;4848483;29;20337;-82
2020/12/31 07:19:32;;;;;;;5.93;2.05;;;1.50;93.50;;;;;;4856013;29;20063;-83
2020/12/31 07:21:59;;;;;;;4.57;1.98;;;1.50;93.70;;;;;;4866426;29;20049;-83
2020/12/31 07:24:28;;;;;;;3.58;1.63;;;1.50;93.70;;;;;;4885637;29;20056;-83
2020/12/31 07:26:59;;;;;;;4.75;2.10;;;1.40;93.90;;;;;;4858597;29;20056;-84
2020/12/31 07:29:30;;;;;;;5.93;1.92;;;1.40;93.90;;;;;;4864501;29;20534;-83
2020/12/31 07:31:59;;;;;;;3.65;1.27;;;1.40;94.00;;;;;;4865937;29;20084;-84
2020/12/31 07:34:29;;;;;;;3.60;2.40;;;1.40;94.00;;;;;;4864737;29;20053;-85
2020/12/31 07:37:02;;;;;;;3.58;1.75;;;1.40;94.00;;;;;;4872290;29;20071;-82
2020/12/31 07:39:31;;;;;;;4.15;1.77;;;1.40;93.90;;;;;;4844655;29;20097;-82
2020/12/31 07:42:11;;;;;;;4.70;2.35;;;1.60;93.90;;;;;;4871546;29;20349;-83
2020/12/31 07:44:53;;;;;;;4.70;2.20;;;1.70;93.30;;;;;;4855805;29;20325;-82
2020/12/31 07:47:22;;;;;;;5.00;2.03;;;1.60;93.20;;;;;;4856242;29;20061;-82
2020/12/31 07:49:51;;;;;;;6.00;2.33;;;1.80;93.40;;;;;;4866150;29;20054;-84
2020/12/31 07:52:20;;;;;;;4.82;2.28;;;1.80;92.90;;;;;;4868308;29;20076;-83
2020/12/31 07:54:47;;;;;;;4.00;1.77;;;1.90;93.20;;;;;;4856077;29;20068;-83
2020/12/31 07:57:15;;;;;;;4.75;2.40;;;2.00;92.20;;;;;;4871903;29;20053;-83
2020/12/31 07:59:46;;;;;;;4.47;2.33;;;2.00;92.40;;;;;;4873569;29;20049;-82
2020/12/31 08:02:16;;;;;;;4.80;1.88;;;2.10;92.40;;;;;;4859541;29;20069;-84
2020/12/31 08:04:44;;;;;;;9.30;2.80;;;2.10;92.00;;;;;;4859222;29;20050;-84
2020/12/31 08:07:15;;;;;;;8.63;2.30;;;2.00;92.10;;;;;;4874368;29;20059;-83
2020/12/31 08:09:45;;;;;;;7.25;2.90;;;2.00;92.30;;;;;;4854784;29;20050;-84
2020/12/31 08:12:12;;;;;;;9.70;2.80;;;2.10;92.50;;;;;;4856303;29;20061;-84
2020/12/31 08:14:42;;;;;;;6.00;2.42;;;2.10;92.30;;;;;;4858871;29;20045;-83
2020/12/31 08:17:10;;;;;;;4.30;2.10;;;2.10;92.60;;;;;;4868945;29;20065;-85
2020/12/31 08:19:38;;;;;;;5.47;2.35;;;2.10;92.40;;;;;;4857767;29;20113;-83
2020/12/31 08:22:22;;;;;;;7.55;2.35;;;2.10;92.70;;;;;;4875757;29;20053;-84
2020/12/31 08:24:56;;;;;;;5.65;2.78;;;2.20;92.50;;;;;;4858765;29;20122;-82
2020/12/31 08:27:24;;;;;;;4.50;2.13;;;2.40;92.30;;;;;;4875449;29;20081;-82
2020/12/31 08:29:54;;;;;;;3.28;1.75;;;2.40;91.90;;;;;;4858760;29;20063;-83
2020/12/31 08:32:24;;;;;;;5.07;1.87;;;2.50;92.10;;;;;;4858880;29;20076;-84
2020/12/31 08:34:57;;;;;;;5.50;2.75;;;2.70;90.80;;;;;;4846815;29;20053;-83
2020/12/31 08:37:27;;;;;;;4.85;2.05;;;2.70;90.20;;;;;;4862324;29;20218;-82
2020/12/31 08:39:56;;;;;;;7.70;2.92;;;2.80;89.80;;;;;;4873521;29;20045;-81
2020/12/31 08:42:25;;;;;;;8.18;3.75;;;2.90;89.70;;;;;;4859943;29;20053;-83
2020/12/31 08:44:56;;;;;;;13.20;4.97;;;2.90;89.70;;;;;;4882095;29;20222;-82
2020/12/31 08:47:26;;;;;;;11.98;5.28;;;3.00;89.70;;;;;;4872551;29;20064;-83
2020/12/31 08:49:55;;;;;;;10.25;4.05;;;3.00;89.20;;;;;;4863811;29;20098;-82
2020/12/31 08:52:27;;;;;;;8.02;3.53;;;3.00;89.20;;;;;;4874066;29;20069;-82
2020/12/31 08:55:08;;;;;;;6.82;3.15;;;3.20;89.80;;;;;;4852942;29;20045;-84
2020/12/31 08:57:35;;;;;;;6.90;2.63;;;3.20;89.10;;;;;;4871082;29;20065;-83
2020/12/31 09:00:01;;;;;;;6.35;3.30;;;3.30;89.00;;;;;;4867637;29;20061;-82
2020/12/31 09:02:35;;;;;;;5.75;3.03;;;3.40;88.30;;;;;;4866824;29;20126;-81
2020/12/31 09:05:16;;;;;;;6.22;2.90;;;3.50;88.50;;;;;;4883192;29;20080;-81
2020/12/31 09:07:44;;;;;;;6.05;2.40;;;3.60;87.30;;;;;;4888069;29;20104;-82
2020/12/31 09:10:16;;;;;;;6.72;2.15;;;3.60;87.90;;;;;;4886923;29;20053;-84
2020/12/31 09:12:44;;;;;;;5.50;2.33;;;3.70;87.30;;;;;;4864249;29;20060;-82
2020/12/31 09:15:18;;;;;;;4.30;2.05;;;3.80;86.70;;;;;;4883334;29;20089;-81
2020/12/31 09:17:45;;;;;;;4.63;2.38;;;3.80;87.10;;;;;;4881736;29;20050;-82
2020/12/31 09:20:22;;;;;;;5.28;2.15;;;3.70;87.20;;;;;;4871445;29;20243;-81
2020/12/31 09:22:50;;;;;;;4.05;2.00;;;3.80;86.40;;;;;;4858476;29;20061;-83
2020/12/31 09:25:17;;;;;;;5.30;2.22;;;3.80;85.40;;;;;;4882773;29;20077;-83
2020/12/31 09:27:45;;;;;;;3.70;2.05;;;3.70;84.80;;;;;;4865121;29;20064;-81
2020/12/31 09:30:15;;;;;;;4.50;2.47;;;3.70;84.90;;;;;;4885120;29;20301;-83
2020/12/31 09:32:46;;;;;;;5.15;2.90;;;3.80;85.20;;;;;;4861672;29;20360;-81
2020/12/31 09:35:16;;;;;;;6.05;3.15;;;3.70;85.30;;;;;;4881168;29;20053;-81
2020/12/31 09:37:55;;;;;;;5.75;2.70;;;3.70;85.30;;;;;;4877472;29;20073;-82
2020/12/31 09:40:24;;;;;;;4.10;2.35;;;3.70;84.70;;;;;;4878485;29;20067;-81
2020/12/31 09:42:52;;;;;;;3.63;1.55;;;3.70;84.50;;;;;;4860335;29;20068;-82
2020/12/31 09:45:19;;;;;;;4.90;2.08;;;3.80;84.70;;;;;;4881928;29;20061;-83
2020/12/31 09:47:46;;;;;;;5.13;2.45;;;3.80;84.40;;;;;;4857594;29;20069;-83
2020/12/31 09:50:13;;;;;;;6.32;2.13;;;3.90;84.50;;;;;;4882117;29;20321;-81
2020/12/31 09:52:41;;;;;;;7.63;2.80;;;4.00;84.20;;;;;;4854314;29;20073;-83
2020/12/31 09:55:08;;;;;;;7.13;2.85;;;4.20;84.70;;;;;;4848789;29;20057;-81
2020/12/31 09:57:36;;;;;;;5.75;2.10;;;4.30;84.60;;;;;;4870793;29;20091;-83
2020/12/31 10:00:04;;;;;;;4.15;1.67;;;4.20;81.00;;;;;;4889607;29;20113;-84
2020/12/31 10:02:40;;;;;;;4.60;1.70;;;4.40;80.80;;;;;;4883089;29;20079;-82
2020/12/31 10:05:07;;;;;;;4.07;2.08;;;4.60;80.60;;;;;;4870893;29;20069;-82
2020/12/31 10:07:34;;;;;;;4.18;2.05;;;4.70;79.30;;;;;;4871962;29;20057;-82
2020/12/31 10:10:02;;;;;;;6.43;2.25;;;4.80;79.30;;;;;;4855315;29;20344;-82
2020/12/31 10:12:32;;;;;;;5.60;2.33;;;4.90;79.70;;;;;;4871161;29;20060;-82
2020/12/31 10:14:59;;;;;;;5.05;1.77;;;5.00;77.20;;;;;;4867113;29;20119;-83
2020/12/31 10:17:26;;;;;;;4.22;1.63;;;4.90;77.30;;;;;;4868923;29;20140;-82
2020/12/31 10:19:56;;;;;;;4.80;1.30;;;5.00;77.10;;;;;;4854546;29;20076;-82
2020/12/31 10:22:27;;;;;;;2.75;1.17;;;5.00;76.30;;;;;;4870578;29;20068;-82
2020/12/31 10:24:54;;;;;;;2.63;1.17;;;5.10;76.90;;;;;;4870226;29;20053;-81
2020/12/31 10:27:21;;;;;;;4.28;1.63;;;5.10;76.00;;;;;;4840603;29;20087;-82
2020/12/31 10:29:48;;;;;;;4.28;2.10;;;5.10;76.60;;;;;;4871466;29;20065;-82
2020/12/31 10:32:16;;;;;;;3.38;1.60;;;5.10;75.20;;;;;;4856014;29;20060;-85
2020/12/31 10:34:44;;;;;;;5.78;1.50;;;5.00;76.10;;;;;;4842013;29;20148;-83
2020/12/31 10:37:11;;;;;;;5.47;2.00;;;5.00;76.00;;;;;;4856566;29;20482;-82
2020/12/31 10:39:38;;;;;;;5.03;1.80;;;5.00;75.20;;;;;;4871409;29;20059;-83
2020/12/31 10:42:06;;;;;;;5.75;2.38;;;5.20;74.70;;;;;;4863677;29;20097;-81
2020/12/31 10:44:33;;;;;;;5.10;1.83;;;5.30;73.50;;;;;;4871060;29;20045;-84
2020/12/31 10:47:01;;;;;;;2.35;1.38;;;5.20;74.20;;;;;;4854549;29;20061;-80
2020/12/31 10:49:28;;;;;;;4.38;1.48;;;5.20;73.90;;;;;;4867723;29;20278;-83
2020/12/31 10:51:55;;;;;;;4.32;1.63;;;5.20;74.10;;;;;;4856612;29;20229;-82
2020/12/31 10:54:22;;;;;;;3.63;2.08;;;5.10;74.10;;;;;;4854555;29;20057;-85
2020/12/31 10:56:49;;;;;;;5.93;1.58;;;5.10;74.70;;;;;;4871587;29;20093;-82
2020/12/31 10:59:16;;;;;;;2.75;1.50;;;5.00;74.20;;;;;;4851965;29;20333;-81
2020/12/31 11:01:43;;;;;;;9.00;2.30;;;4.90;73.80;;;;;;4867138;29;20061;-83
2020/12/31 11:04:17;;;;;;;5.15;2.15;;;4.70;74.70;;;;;;4870862;29;20053;-81
2020/12/31 11:06:44;;;;;;;4.75;1.63;;;4.70;74.70;;;;;;4870566;29;20054;-80
2020/12/31 11:09:13;;;;;;;2.75;1.40;;;4.60;74.10;;;;;;4873896;29;20101;-83
2020/12/31 11:11:41;;;;;;;2.88;1.17;;;4.60;75.50;;;;;;4859102;29;20104;-85
2020/12/31 11:14:09;;;;;;;2.92;1.30;;;4.60;75.60;;;;;;4891700;29;20120;-81
2020/12/31 11:16:36;;;;;;;4.00;1.40;;;4.70;75.40;;;;;;4893980;29;20277;-83
2020/12/31 11:19:05;;;;;;;2.78;1.50;;;4.70;74.60;;;;;;4905061;29;20061;-84
2020/12/31 11:21:33;;;;;;;4.10;1.65;;;4.70;75.40;;;;;;4853133;29;20073;-81
2020/12/31 11:24:03;;;;;;;3.60;1.42;;;4.60;75.00;;;;;;4876896;29;20359;-81
2020/12/31 11:26:30;;;;;;;3.63;1.00;;;4.50;75.30;;;;;;4894110;29;20048;-82
2020/12/31 11:28:57;;;;;;;2.63;1.58;;;4.40;76.30;;;;;;4889257;29;20065;-84
2020/12/31 11:31:25;;;;;;;2.92;1.08;;;4.30;77.70;;;;;;4878352;29;20101;-81
2020/12/31 11:33:52;;;;;;;6.60;1.63;;;4.30;78.40;;;;;;4872992;29;20061;-83
2020/12/31 11:36:21;;;;;;;2.85;1.25;;;4.30;78.80;;;;;;4880510;29;20041;-81
2020/12/31 11:38:49;;;;;;;6.78;1.92;;;4.30;79.10;;;;;;4895299;29;20348;-84
2020/12/31 11:41:16;;;;;;;7.05;2.33;;;4.20;79.60;;;;;;4877605;29;20060;-83
2020/12/31 11:43:44;;;;;;;6.07;2.25;;;4.10;80.10;;;;;;4871746;29;20060;-82
2020/12/31 11:46:11;;;;;;;4.28;1.80;;;4.20;80.30;;;;;;4897628;29;20359;-83
2020/12/31 11:48:39;;;;;;;5.20;2.13;;;4.20;80.80;;;;;;4859948;29;20104;-81
2020/12/31 11:51:09;;;;;;;3.53;1.52;;;4.10;81.30;;;;;;4877305;29;20274;-83
2020/12/31 11:53:37;;;;;;;4.53;1.85;;;4.10;82.10;;;;;;4875567;29;20069;-81
2020/12/31 11:56:05;;;;;;;4.13;1.80;;;4.10;82.10;;;;;;4894026;29;20053;-80
2020/12/31 11:58:32;;;;;;;2.65;1.33;;;4.00;82.10;;;;;;4859002;29;20641;-84
2020/12/31 12:01:00;;;;;;;4.75;2.15;;;3.90;82.70;;;;;;4878658;29;20123;-82
2020/12/31 12:03:29;;;;;;;3.33;1.65;;;3.90;83.20;;;;;;4879405;29;20048;-81
2020/12/31 12:05:56;;;;;;;4.65;1.85;;;4.00;83.10;;;;;;4876027;29;20061;-84
2020/12/31 12:08:28;;;;;;;3.58;2.17;;;4.10;82.80;;;;;;4895603;29;20067;-84
2020/12/31 12:10:55;;;;;;;5.82;2.35;;;4.10;83.40;;;;;;4894728;29;20293;-84
2020/12/31 12:13:23;;;;;;;5.40;2.83;;;4.10;82.80;;;;;;4882493;29;20061;-83
2020/12/31 12:15:50;;;;;;;5.35;2.40;;;4.20;83.60;;;;;;4884456;29;20167;-81
2020/12/31 12:18:19;;;;;;;3.83;2.22;;;4.40;83.30;;;;;;4892503;29;20071;-82
2020/12/31 12:20:48;;;;;;;2.83;1.20;;;4.30;82.50;;;;;;4887606;29;20118;-83
2020/12/31 12:23:16;;;;;;;3.58;2.13;;;4.20;83.40;;;;;;4894069;29;20052;-82
2020/12/31 12:25:43;;;;;;;4.95;2.13;;;4.20;84.30;;;;;;4885318;29;20057;-83
2020/12/31 12:28:10;;;;;;;8.40;1.50;;;4.20;83.90;;;;;;4893830;29;20056;-81
2020/12/31 12:30:38;;;;;;;3.85;1.23;;;4.00;84.10;;;;;;4908882;29;20380;-82
2020/12/31 12:33:05;;;;;;;4.18;1.73;;;4.00;84.40;;;;;;4867706;29;20063;-85
2020/12/31 12:35:33;;;;;;;4.55;1.73;;;4.00;85.20;;;;;;4889236;29;20068;-83
2020/12/31 12:38:01;;;;;;;2.72;1.23;;;4.00;84.70;;;;;;4908066;29;20063;-82
2020/12/31 12:40:34;;;;;;;3.92;1.50;;;4.00;85.00;;;;;;4889503;29;20101;-84
2020/12/31 12:43:00;;;;;;;3.50;1.58;;;3.90;85.40;;;;;;4904132;29;20049;-83
2020/12/31 12:45:31;;;;;;;3.72;1.35;;;3.90;84.50;;;;;;4891440;29;20060;-82
2020/12/31 12:48:00;;;;;;;3.78;1.92;;;3.90;85.20;;;;;;4892592;29;20052;-82
2020/12/31 12:50:33;;;;;;;4.93;2.05;;;3.90;85.00;;;;;;4885061;29;20041;-81
2020/12/31 12:53:00;;;;;;;4.07;1.75;;;3.90;85.10;;;;;;4891681;29;20052;-81
2020/12/31 12:55:26;;;;;;;4.85;1.42;;;3.90;85.10;;;;;;4891540;29;20393;-83
2020/12/31 12:57:53;;;;;;;3.50;1.60;;;3.90;85.60;;;;;;4890868;29;20049;-83
2020/12/31 13:00:21;;;;;;;6.05;1.83;;;4.00;85.60;;;;;;4886686;29;20070;-82
2020/12/31 13:02:48;;;;;;;3.88;2.10;;;4.00;86.10;;;;;;4890855;29;20347;-82
2020/12/31 13:05:16;;;;;;;3.05;1.42;;;4.20;85.10;;;;;;4889361;29;20052;-82
2020/12/31 13:07:42;;;;;;;4.32;1.83;;;4.20;85.60;;;;;;4888039;29;20071;-82
2020/12/31 13:10:10;;;;;;;3.78;1.40;;;4.20;84.50;;;;;;4890473;29;20060;-82